Terminal Aerodrome Forecast
Issued by NWS Paducah, KY

Home | Current Version | Previous Version | Text Only | Print | Product List | Glossary On
Versions: 1 2 3 4 5 6 7 8 9 10 11 12 13 14 15 16 17 18 19 20 21 22 23 24 25
602
FTUS43 KPAH 151739
TAFEVV
TAF
KEVV 151739Z 1518/1618 06006KT 5SM -DZ BR OVC005
     FM160600 05004KT 4SM BR OVC005
     FM161700 12006KT P6SM OVC012=

USA.gov is the U.S. government's official web portal to all federal, state and local government web resources and services.